Terminal Aerodrome Forecast
Issued by NWS

Home | Current Version | Previous Version | Text Only | Print | Product List | Glossary Off
Versions: 1 2 3 4 5 6 7 8 9 10 11 12 13 14

000
FTUS43 KMPX 290520
TAFAXN
TAF
KAXN 290520Z 2906/3006 17021G28KT P6SM SCT090 BKN250
     FM290700 18018G28KT P6SM -RA SCT040 OVC090
     FM291000 20015G25KT P6SM VCSH SCT020 OVC040
     FM291200 26018G26KT P6SM -SHRA BKN020 OVC040
     FM291400 31026G37KT P6SM VCSH OVC012
     FM291800 32026G38KT P6SM BKN035
     FM300000 32015KT P6SM SKC=

USA.gov is the U.S. government's official web portal to all federal, state and local government web resources and services.